Airfield :
LOGIN :

Register | Disclaimer

   EN    FR    IT 

 










Legend :    VFR   Marginal VFR   IFR   Intensive IFR   Very Intensive IFR
Visi :
Ceiling :
>= 8 km
>= 3000ft
5 to 8 km
1000 to 3000 ft
1500m to 5 km
500 to 1000 ft
800 to 1500m
200 to 500 ft
< 800m
< 200 ft
Symbols :   Thunderstorms  Fog  Heavy snow  Heavy precipitations  Wind > 20 kt
SIGMETs :     Misc.  Thunderstorms  Icing  Turbulence  Mountain Waves  Volcanic Ashes







- Airport Elevation : 0 ft


ETEB - Ansbach Army Heliport

CURRENT METAR :
  • 201456Z AUTO 05006KT 9999 OVC020 02/02 A2972 RMK AO2 SLP101 T00170016 53008 $

EXPIRED METARs :
  • 201441Z AUTO 04007KT 9999 OVC020 02/02 A2971 RMK AO2 SLP098 $
  • 201411Z AUTO 05006KT 9999 BKN014 OVC019 02/02 A2971 RMK AO2 SLP098 $
  • 201356Z AUTO 05006KT 9999 OVC016 02/02 A2971 RMK AO2 SLP098 T00180017 $
  • 201256Z AUTO 07008KT 9999 SCT010 OVC018 02/02 A2969 RMK AO2 CIG 011V018 SLP091 T00160015 $
  • 201211Z AUTO 08009KT 9999 BKN010 OVC015 01/01 A2969 RMK AO2 CIG 009V012 SLP091 $

TAF TAF ETEB
Valid from the 20 at 14:00 until the 21 at 20:00 UTC


201416Z 2014/2120 08009KT 9999 BKN015 620209 621107 QNH2966INS
TEMPO 2014/2016 BKN010
BECMG 2019/2020 09009KT 8000 BR SCT015 QNH2978INS
BECMG 2100/2101 08009KT 3200 BR SKC QNH2985INS
BECMG 2102/2103 VRB06KT 0800 FG SKC QNH2987INS
TEMPO 2105/2107 3200 BR
BECMG 2109/2110 VRB06KT 5000 BR BKN008 620209 621107 QNH2989INS
BECMG 2110/2111 10006KT 9999 NSW BKN015 620209 621107 QNH2991INS TX04/2114Z TNM03/2104Z
No reported NOTAMs for that airfield.



MET'MAP, your aeronautical weather chart ! - Copyright ORBIFLY December 2007 - Disclaimer

ORBIFLY MET'MAP TEAM :

Programming & Development : Alexandra Zaïnal
Concept & Development : Baudouin d'Aumeries
Co-Development & Prog : Marc-Olivier Méhu
Technical & hardware support : Manuel Goepfert

Contact : metmap@orbifly.com




SOURCES & CREDITS :

   NOAA